Time;durP1;ratioP1;P1;durP2;ratioP2;P2;SDS_P1;SDS_P2;PMS_P1;PMS_P2;Temp;Humidity;BMP_temperature;BMP_pressure;BME280_temperature;BME280_humidity;BME280_pressure;Samples;Min_cycle;Max_cycle;Signal;HPM_P1;HPM_P2
2024/01/25 00:01:07;;;;;;;6.95;4.35;;;8.50;99.90;;;;;;5042058;28;20033;-68
2024/01/25 00:03:32;;;;;;;6.10;5.18;;;8.40;99.90;;;;;;5046108;28;20361;-68
2024/01/25 00:05:58;;;;;;;13.35;4.70;;;8.40;99.90;;;;;;5048998;28;20025;-69
2024/01/25 00:08:23;;;;;;;2.80;2.60;;;8.40;99.90;;;;;;5038434;28;20366;-69
2024/01/25 00:10:49;;;;;;;24.13;5.40;;;8.40;99.90;;;;;;5051800;28;20037;-69
2024/01/25 00:13:14;;;;;;;2.80;2.70;;;8.30;99.90;;;;;;5042759;28;20040;-69
2024/01/25 00:15:40;;;;;;;17.00;4.82;;;8.30;99.90;;;;;;5045071;28;20446;-69
2024/01/25 00:18:05;;;;;;;23.20;4.57;;;8.30;99.90;;;;;;5049602;28;20372;-70
2024/01/25 00:20:31;;;;;;;4.45;3.10;;;8.30;99.90;;;;;;5038916;28;20462;-69
2024/01/25 00:22:57;;;;;;;4.00;3.70;;;8.30;99.90;;;;;;5050554;28;20026;-69
2024/01/25 00:25:23;;;;;;;5.30;4.35;;;8.30;99.90;;;;;;5043535;28;20035;-68
2024/01/25 00:27:49;;;;;;;9.48;3.20;;;8.20;99.90;;;;;;5043598;28;20029;-69
2024/01/25 00:30:15;;;;;;;11.32;4.50;;;8.20;99.90;;;;;;5050612;28;20033;-69
2024/01/25 00:32:40;;;;;;;3.33;3.20;;;8.20;99.90;;;;;;5038595;28;20028;-69
2024/01/25 00:35:07;;;;;;;10.85;4.53;;;8.20;99.90;;;;;;5049097;28;20103;-69
2024/01/25 00:37:32;;;;;;;3.20;3.10;;;8.20;99.90;;;;;;5044663;28;20036;-69
2024/01/25 00:39:58;;;;;;;5.18;3.88;;;8.10;99.90;;;;;;5041752;28;20030;-69
2024/01/25 00:42:24;;;;;;;8.32;3.72;;;8.10;99.90;;;;;;5051083;28;20358;-69
2024/01/25 00:44:50;;;;;;;14.15;6.57;;;8.10;99.90;;;;;;5034426;28;20034;-69
2024/01/25 00:47:16;;;;;;;19.33;7.00;;;8.10;99.90;;;;;;5036257;28;20108;-69
2024/01/25 00:49:42;;;;;;;4.30;3.90;;;8.10;99.90;;;;;;5045480;28;20465;-69
2024/01/25 00:52:08;;;;;;;5.05;3.53;;;8.10;99.90;;;;;;5040054;28;20366;-69
2024/01/25 00:54:34;;;;;;;9.80;4.57;;;8.10;99.90;;;;;;5051206;28;20029;-69
2024/01/25 00:57:00;;;;;;;4.00;3.53;;;8.00;99.90;;;;;;5039617;28;20041;-69
2024/01/25 00:59:25;;;;;;;5.85;4.25;;;8.00;99.90;;;;;;5045879;28;20032;-69
2024/01/25 01:01:55;;;;;;;3.85;3.75;;;8.00;99.90;;;;;;5046873;28;20102;-69
2024/01/25 01:04:20;;;;;;;3.67;3.58;;;8.00;99.90;;;;;;5038423;28;20053;-68
2024/01/25 01:06:47;;;;;;;9.48;4.15;;;8.00;99.90;;;;;;5050914;28;20096;-69
2024/01/25 01:09:13;;;;;;;4.65;4.25;;;8.00;99.90;;;;;;5041299;28;20037;-69
2024/01/25 01:11:39;;;;;;;3.20;3.10;;;8.00;99.90;;;;;;5044101;28;20031;-68
2024/01/25 01:14:04;;;;;;;5.47;4.97;;;8.00;99.90;;;;;;5047596;28;20511;-68
2024/01/25 01:16:32;;;;;;;6.25;5.70;;;8.00;99.90;;;;;;5037806;28;20512;-68
2024/01/25 01:19:05;;;;;;;5.13;4.72;;;8.00;99.90;;;;;;5049346;28;20037;-69
2024/01/25 01:21:30;;;;;;;4.20;4.00;;;8.00;99.90;;;;;;5043490;28;20083;-69
2024/01/25 01:23:56;;;;;;;5.25;4.88;;;8.00;99.90;;;;;;5041382;28;20434;-69
2024/01/25 01:26:22;;;;;;;4.38;4.20;;;7.90;99.90;;;;;;5050373;28;20033;-69
2024/01/25 01:28:47;;;;;;;6.68;5.93;;;7.90;99.90;;;;;;5037447;28;20045;-69
2024/01/25 01:31:13;;;;;;;6.55;4.63;;;7.90;99.90;;;;;;5047360;28;20728;-68
2024/01/25 01:33:38;;;;;;;5.72;4.80;;;7.90;99.90;;;;;;5043884;28;20435;-71
2024/01/25 01:36:04;;;;;;;4.35;4.15;;;7.90;99.90;;;;;;5039911;28;20123;-67
2024/01/25 01:38:29;;;;;;;5.10;4.68;;;7.90;99.90;;;;;;5049942;28;20107;-69
2024/01/25 01:40:55;;;;;;;17.95;5.43;;;7.90;99.90;;;;;;5038543;28;20045;-69
2024/01/25 01:43:22;;;;;;;4.88;4.47;;;7.90;99.90;;;;;;5044503;28;20422;-69
2024/01/25 01:45:49;;;;;;;3.90;3.80;;;7.80;99.90;;;;;;5045550;28;20118;-68
2024/01/25 01:48:15;;;;;;;4.45;4.20;;;7.80;99.90;;;;;;5038216;28;20041;-69
2024/01/25 01:50:42;;;;;;;23.23;8.20;;;7.80;99.90;;;;;;5049974;28;20025;-70
2024/01/25 01:53:08;;;;;;;5.35;5.13;;;7.80;99.90;;;;;;5038823;28;20052;-69
2024/01/25 01:55:34;;;;;;;10.70;5.03;;;7.80;99.90;;;;;;5043700;28;20474;-69
2024/01/25 01:58:00;;;;;;;4.30;4.20;;;7.70;99.90;;;;;;5046743;28;20025;-69
2024/01/25 02:00:30;;;;;;;23.92;6.57;;;7.70;99.90;;;;;;5036813;28;20037;-70
2024/01/25 02:02:57;;;;;;;4.50;4.30;;;7.70;99.90;;;;;;5048615;28;20030;-70
2024/01/25 02:05:23;;;;;;;4.70;4.50;;;7.70;99.90;;;;;;5041720;28;20033;-70
2024/01/25 02:07:49;;;;;;;5.40;4.78;;;7.60;99.90;;;;;;5041500;28;20037;-69
2024/01/25 02:10:15;;;;;;;4.80;4.60;;;7.60;99.90;;;;;;5048719;28;20423;-69
2024/01/25 02:12:40;;;;;;;5.45;5.15;;;7.60;99.90;;;;;;5036300;28;20030;-69
2024/01/25 02:15:07;;;;;;;4.15;4.05;;;7.60;99.90;;;;;;5047199;28;20029;-68
2024/01/25 02:17:33;;;;;;;5.28;4.90;;;7.60;99.90;;;;;;5042703;28;20032;-69
2024/01/25 02:19:58;;;;;;;7.32;6.53;;;7.50;99.90;;;;;;5039909;28;20041;-69
2024/01/25 02:22:24;;;;;;;4.55;4.35;;;7.60;99.90;;;;;;5049216;28;20110;-70
2024/01/25 02:24:49;;;;;;;6.28;5.70;;;7.50;99.90;;;;;;5036606;28;20060;-70
2024/01/25 02:27:15;;;;;;;5.28;4.97;;;7.50;99.90;;;;;;5045935;28;20040;-69
2024/01/25 02:29:40;;;;;;;6.57;6.18;;;7.50;99.90;;;;;;5043948;28;20025;-69
2024/01/25 02:32:06;;;;;;;4.97;4.78;;;7.50;99.90;;;;;;5038364;28;20037;-69
2024/01/25 02:34:32;;;;;;;5.05;4.72;;;7.40;99.90;;;;;;5049111;28;20041;-69
2024/01/25 02:36:57;;;;;;;5.20;4.90;;;7.40;99.90;;;;;;5037602;28;20112;-69
2024/01/25 02:39:23;;;;;;;4.28;4.18;;;7.40;99.90;;;;;;5044415;28;20048;-70
2024/01/25 02:41:48;;;;;;;6.47;6.00;;;7.40;99.90;;;;;;5044435;28;20155;-68
2024/01/25 02:44:15;;;;;;;6.00;5.60;;;7.40;99.90;;;;;;5037300;28;20068;-68
2024/01/25 02:46:41;;;;;;;5.00;4.80;;;7.40;99.90;;;;;;5049042;28;20036;-69
2024/01/25 02:49:07;;;;;;;5.00;4.80;;;7.40;99.90;;;;;;5038681;28;20111;-68
2024/01/25 02:51:33;;;;;;;5.20;5.00;;;7.40;99.90;;;;;;5042974;28;20049;-70
2024/01/25 02:53:58;;;;;;;5.47;5.28;;;7.40;99.90;;;;;;5045828;28;20751;-69
2024/01/25 02:56:24;;;;;;;5.53;5.32;;;7.40;99.90;;;;;;5034484;28;20603;-69
2024/01/25 02:58:49;;;;;;;5.32;5.13;;;7.30;99.90;;;;;;5048965;28;20033;-69
2024/01/25 03:01:15;;;;;;;5.25;5.05;;;7.40;99.90;;;;;;5039040;28;20040;-69
2024/01/25 03:03:41;;;;;;;5.32;5.13;;;7.30;99.90;;;;;;5041352;28;20061;-70
2024/01/25 03:06:06;;;;;;;5.32;5.07;;;7.30;99.90;;;;;;5046263;28;20394;-69
2024/01/25 03:08:32;;;;;;;5.53;5.32;;;7.30;99.90;;;;;;5035719;28;20028;-69
2024/01/25 03:10:58;;;;;;;5.30;5.10;;;7.30;99.90;;;;;;5047607;28;20056;-69
2024/01/25 03:13:23;;;;;;;5.82;5.63;;;7.30;99.90;;;;;;5040632;28;20029;-69
2024/01/25 03:15:49;;;;;;;6.68;6.20;;;7.30;99.90;;;;;;5040124;28;20026;-69
2024/01/25 03:18:14;;;;;;;5.85;5.55;;;7.30;99.90;;;;;;5047628;28;20040;-68
2024/01/25 03:20:40;;;;;;;5.20;5.00;;;7.20;99.90;;;;;;5035478;28;20037;-68
2024/01/25 03:23:05;;;;;;;5.88;5.68;;;7.20;99.90;;;;;;5046394;28;20026;-69
2024/01/25 03:25:31;;;;;;;6.03;5.82;;;7.20;99.90;;;;;;5041608;28;20383;-69
2024/01/25 03:27:57;;;;;;;5.40;5.20;;;7.20;99.90;;;;;;5039156;28;20041;-68
2024/01/25 03:30:22;;;;;;;5.50;5.30;;;7.20;99.90;;;;;;5048372;28;20033;-69
2024/01/25 03:32:48;;;;;;;5.47;5.28;;;7.10;99.90;;;;;;5032288;28;20494;-69
2024/01/25 03:35:14;;;;;;;6.57;6.28;;;7.10;99.90;;;;;;5041041;28;20054;-69
2024/01/25 03:37:39;;;;;;;6.00;5.80;;;7.10;99.90;;;;;;5041531;28;20032;-69
2024/01/25 03:40:05;;;;;;;5.20;5.00;;;7.10;99.90;;;;;;5045971;28;20033;-69
2024/01/25 03:42:31;;;;;;;5.60;5.30;;;7.10;99.90;;;;;;5035637;28;20091;-69
2024/01/25 03:44:57;;;;;;;5.40;5.20;;;7.00;99.90;;;;;;5046674;28;20033;-69
2024/01/25 03:47:23;;;;;;;5.20;5.00;;;7.00;99.90;;;;;;5040052;28;20036;-69
2024/01/25 03:49:48;;;;;;;4.70;4.50;;;7.00;99.90;;;;;;5040304;28;20113;-69
2024/01/25 03:52:14;;;;;;;4.90;4.70;;;7.00;99.90;;;;;;5047508;28;20033;-68
2024/01/25 03:54:39;;;;;;;5.38;5.18;;;7.00;99.90;;;;;;5035388;28;20025;-69
2024/01/25 03:57:05;;;;;;;4.88;4.68;;;6.90;99.90;;;;;;5046285;28;20428;-69
2024/01/25 03:59:31;;;;;;;6.43;6.13;;;6.90;99.90;;;;;;5041415;28;20044;-69
2024/01/25 04:01:56;;;;;;;5.25;5.05;;;6.80;99.90;;;;;;5039138;28;20072;-69
2024/01/25 04:04:22;;;;;;;5.45;5.22;;;6.80;99.90;;;;;;5048362;28;20029;-70
2024/01/25 04:06:48;;;;;;;5.60;5.40;;;6.80;99.90;;;;;;5019158;28;20100;-69
2024/01/25 04:09:17;;;;;;;7.55;5.20;;;6.80;99.90;;;;;;5044991;28;20389;-69
2024/01/25 04:11:43;;;;;;;4.88;4.68;;;6.80;99.90;;;;;;5042901;28;20025;-69
2024/01/25 04:14:09;;;;;;;5.00;4.80;;;6.70;99.90;;;;;;5037254;28;20029;-69
2024/01/25 04:16:34;;;;;;;10.40;5.10;;;6.70;99.90;;;;;;5050071;28;20064;-69
2024/01/25 04:19:00;;;;;;;5.18;4.97;;;6.70;99.90;;;;;;5040798;28;20081;-69
2024/01/25 04:21:27;;;;;;;5.00;4.80;;;6.70;99.90;;;;;;5046774;28;20041;-69
2024/01/25 04:23:52;;;;;;;5.25;5.05;;;6.70;99.90;;;;;;5048122;28;20029;-69
2024/01/25 04:26:18;;;;;;;5.30;5.10;;;6.70;99.90;;;;;;5039517;28;20028;-70
2024/01/25 04:28:43;;;;;;;4.90;4.70;;;6.60;99.90;;;;;;5054369;28;20024;-69
2024/01/25 04:31:09;;;;;;;5.10;4.90;;;6.60;99.90;;;;;;5048831;28;20030;-69
2024/01/25 04:33:34;;;;;;;4.80;4.60;;;6.60;99.90;;;;;;5044871;28;20147;-70
2024/01/25 04:36:00;;;;;;;4.80;4.60;;;6.60;99.90;;;;;;5041994;28;20103;-69
2024/01/25 04:38:26;;;;;;;6.95;6.57;;;6.50;99.90;;;;;;5051586;28;20477;-69
2024/01/25 04:40:51;;;;;;;5.20;5.00;;;6.50;99.90;;;;;;5038792;28;20044;-69
2024/01/25 04:43:17;;;;;;;4.70;4.50;;;6.50;99.90;;;;;;5047556;28;20113;-69
2024/01/25 04:45:42;;;;;;;4.90;4.70;;;6.50;99.90;;;;;;5045821;28;20060;-69
2024/01/25 04:48:08;;;;;;;4.60;4.40;;;6.50;99.90;;;;;;5040545;28;20061;-69
2024/01/25 04:50:34;;;;;;;4.47;4.32;;;6.50;99.90;;;;;;5051486;28;20048;-69
2024/01/25 04:53:02;;;;;;;4.80;4.60;;;6.40;99.90;;;;;;5039845;28;20107;-69
2024/01/25 04:55:27;;;;;;;4.60;4.40;;;6.40;99.90;;;;;;5046159;28;20143;-69
2024/01/25 04:57:53;;;;;;;4.43;4.28;;;6.40;99.90;;;;;;5047127;28;20453;-69
2024/01/25 05:00:21;;;;;;;4.60;4.40;;;6.40;99.90;;;;;;5038783;28;20022;-68
2024/01/25 05:02:47;;;;;;;5.10;4.90;;;6.40;99.90;;;;;;5051277;28;20031;-70
2024/01/25 05:05:12;;;;;;;4.85;4.65;;;6.40;99.90;;;;;;5041570;28;20021;-69
2024/01/25 05:07:38;;;;;;;4.70;4.50;;;6.40;99.90;;;;;;5044264;28;20033;-69
2024/01/25 05:10:04;;;;;;;5.15;4.95;;;6.40;99.90;;;;;;5048271;28;20424;-69
2024/01/25 05:12:29;;;;;;;5.70;5.50;;;6.40;99.90;;;;;;5037881;28;20021;-69
2024/01/25 05:14:55;;;;;;;5.30;5.10;;;6.40;99.90;;;;;;5050186;28;20033;-69
2024/01/25 05:17:20;;;;;;;5.40;5.20;;;6.30;99.90;;;;;;5042261;28;20078;-70
2024/01/25 05:19:46;;;;;;;5.80;5.60;;;6.30;99.90;;;;;;5043014;28;20036;-70
2024/01/25 05:22:11;;;;;;;5.50;5.30;;;6.30;99.90;;;;;;5049359;28;20048;-69
2024/01/25 05:24:37;;;;;;;4.47;4.30;;;6.30;99.90;;;;;;5037776;28;20022;-70
2024/01/25 05:27:03;;;;;;;5.20;5.00;;;6.30;99.90;;;;;;5048218;28;20053;-70
2024/01/25 05:29:28;;;;;;;5.60;5.40;;;6.30;99.90;;;;;;5043402;28;20017;-69
2024/01/25 05:31:54;;;;;;;5.00;4.80;;;6.20;99.90;;;;;;5041710;28;20064;-69
2024/01/25 05:34:19;;;;;;;4.90;4.70;;;6.20;99.90;;;;;;5050133;28;20481;-69
2024/01/25 05:36:45;;;;;;;4.63;4.43;;;6.20;99.90;;;;;;5037523;28;20031;-70
2024/01/25 05:39:10;;;;;;;5.00;4.80;;;6.20;99.90;;;;;;5047647;28;20025;-69
2024/01/25 05:41:36;;;;;;;4.90;4.70;;;6.20;99.90;;;;;;5043600;28;20052;-70
2024/01/25 05:44:01;;;;;;;4.70;4.50;;;6.10;99.90;;;;;;5040715;28;20033;-70
2024/01/25 05:46:27;;;;;;;4.80;4.60;;;6.20;99.90;;;;;;5050516;28;20506;-70
2024/01/25 05:48:52;;;;;;;4.28;4.15;;;6.10;99.90;;;;;;5038072;28;20499;-69
2024/01/25 05:51:18;;;;;;;4.72;4.53;;;6.20;99.90;;;;;;5046156;28;20026;-70
2024/01/25 05:53:44;;;;;;;4.55;4.35;;;6.20;99.90;;;;;;5045305;28;20025;-69
2024/01/25 05:56:09;;;;;;;4.20;4.10;;;6.20;99.90;;;;;;5038911;28;20086;-70
2024/01/25 05:58:35;;;;;;;4.60;4.40;;;6.20;99.90;;;;;;5049866;28;20098;-70
2024/01/25 06:01:01;;;;;;;3.90;3.80;;;6.20;99.90;;;;;;5038886;28;20128;-69
2024/01/25 06:03:26;;;;;;;4.60;4.40;;;6.20;99.90;;;;;;5045196;28;20105;-69
2024/01/25 06:05:52;;;;;;;4.70;4.50;;;6.20;99.90;;;;;;5045961;28;20033;-69
2024/01/25 06:08:17;;;;;;;5.80;5.35;;;6.10;99.90;;;;;;5037637;28;20025;-69
2024/01/25 06:10:43;;;;;;;5.65;5.15;;;6.10;99.90;;;;;;5049468;28;20044;-69
2024/01/25 06:13:09;;;;;;;4.03;3.92;;;6.10;99.90;;;;;;5038320;28;20029;-69
2024/01/25 06:15:34;;;;;;;4.20;4.10;;;6.10;99.90;;;;;;5042274;28;20370;-69
2024/01/25 06:18:00;;;;;;;4.30;4.10;;;6.10;99.90;;;;;;5046754;28;20461;-70
2024/01/25 06:20:25;;;;;;;5.25;4.85;;;6.10;99.90;;;;;;5035392;28;20462;-69
2024/01/25 06:22:51;;;;;;;4.75;4.47;;;6.10;99.90;;;;;;5049289;28;20035;-69
2024/01/25 06:25:16;;;;;;;3.60;3.50;;;6.20;99.90;;;;;;5040749;28;20040;-69
2024/01/25 06:27:42;;;;;;;4.00;3.90;;;6.10;99.90;;;;;;5042014;28;20029;-69
2024/01/25 06:30:09;;;;;;;5.18;4.90;;;6.10;99.90;;;;;;5047692;28;20087;-69
2024/01/25 06:32:34;;;;;;;4.10;3.90;;;6.10;99.90;;;;;;5036530;28;20029;-70
2024/01/25 06:35:00;;;;;;;3.60;3.50;;;6.10;99.90;;;;;;5047908;28;20099;-68
2024/01/25 06:37:25;;;;;;;3.60;3.50;;;6.20;99.90;;;;;;5041355;28;20021;-69
2024/01/25 06:39:51;;;;;;;4.18;4.07;;;6.20;99.90;;;;;;5040078;28;20022;-69
2024/01/25 06:42:16;;;;;;;4.35;4.05;;;6.20;99.90;;;;;;5042750;28;20037;-69
2024/01/25 06:44:44;;;;;;;4.57;4.28;;;6.20;99.90;;;;;;5044803;28;20371;-70
2024/01/25 06:47:10;;;;;;;4.10;4.00;;;6.10;99.90;;;;;;5044922;28;20377;-68
2024/01/25 06:49:35;;;;;;;3.80;3.70;;;6.10;99.90;;;;;;5042869;28;20029;-69
2024/01/25 06:52:01;;;;;;;4.20;4.10;;;6.10;99.90;;;;;;5038132;28;20025;-70
2024/01/25 06:54:27;;;;;;;4.00;3.90;;;6.10;99.90;;;;;;5041688;28;20048;-69
2024/01/25 06:56:52;;;;;;;3.95;3.85;;;6.10;99.90;;;;;;5048222;28;20367;-69
2024/01/25 06:59:18;;;;;;;3.83;3.72;;;6.10;99.90;;;;;;5040250;28;20025;-69
2024/01/25 07:01:44;;;;;;;3.90;3.80;;;6.10;99.90;;;;;;5041044;28;20112;-69
2024/01/25 07:04:09;;;;;;;3.95;3.85;;;6.10;99.90;;;;;;5032504;28;20037;-68
2024/01/25 07:06:35;;;;;;;3.17;3.08;;;6.10;99.90;;;;;;5039404;28;20025;-69
2024/01/25 07:09:00;;;;;;;3.63;3.53;;;6.10;99.90;;;;;;5047269;28;20025;-70
2024/01/25 07:11:26;;;;;;;3.85;3.75;;;6.10;99.90;;;;;;5040612;28;20033;-70
2024/01/25 07:13:51;;;;;;;3.90;3.80;;;6.10;99.90;;;;;;5040296;28;20025;-68
2024/01/25 07:16:19;;;;;;;3.80;3.70;;;6.20;99.90;;;;;;5047761;28;20048;-69
2024/01/25 07:18:45;;;;;;;3.90;3.80;;;6.20;99.90;;;;;;5035821;28;20028;-69
2024/01/25 07:21:10;;;;;;;3.70;3.60;;;6.30;99.90;;;;;;5045705;28;20045;-69
2024/01/25 07:23:36;;;;;;;3.45;3.35;;;6.30;99.90;;;;;;5035897;28;20035;-68
2024/01/25 07:26:01;;;;;;;3.70;3.60;;;6.40;99.90;;;;;;5038536;28;20037;-68
2024/01/25 07:28:27;;;;;;;3.90;3.80;;;6.30;99.90;;;;;;5049251;28;20033;-69
2024/01/25 07:30:53;;;;;;;3.60;3.50;;;6.40;99.90;;;;;;5047728;28;20053;-69
2024/01/25 07:33:18;;;;;;;4.05;3.85;;;6.40;99.90;;;;;;5038978;28;20045;-69
2024/01/25 07:35:47;;;;;;;4.10;4.00;;;6.40;99.90;;;;;;5041077;28;20049;-68
2024/01/25 07:38:13;;;;;;;4.00;3.90;;;6.40;99.90;;;;;;5046946;28;20029;-69
2024/01/25 07:40:39;;;;;;;4.32;4.05;;;6.40;99.90;;;;;;5034762;28;20880;-69
2024/01/25 07:43:05;;;;;;;4.00;3.80;;;6.30;99.90;;;;;;5046525;28;20034;-69
2024/01/25 07:45:32;;;;;;;2.70;2.60;;;6.40;99.90;;;;;;5041521;28;20033;-69
2024/01/25 07:47:57;;;;;;;1.70;1.70;;;6.40;99.90;;;;;;5038769;28;20407;-68
2024/01/25 07:50:23;;;;;;;2.03;2.03;;;6.40;99.90;;;;;;5049921;28;20132;-68
2024/01/25 07:52:49;;;;;;;2.00;1.90;;;6.40;99.90;;;;;;5039112;28;20033;-68
2024/01/25 07:55:16;;;;;;;1.95;1.85;;;6.40;99.90;;;;;;5048776;28;20030;-69
2024/01/25 07:57:41;;;;;;;2.17;2.17;;;6.40;99.90;;;;;;5046759;28;20060;-69
2024/01/25 08:00:08;;;;;;;1.67;1.67;;;6.40;99.90;;;;;;5041652;28;20064;-68
2024/01/25 08:02:35;;;;;;;1.60;1.60;;;6.50;99.90;;;;;;5052444;28;20059;-68
2024/01/25 08:05:00;;;;;;;1.50;1.50;;;6.50;99.90;;;;;;5040644;28;20381;-69
2024/01/25 08:07:26;;;;;;;2.85;2.70;;;6.50;99.90;;;;;;5046816;28;20037;-69
2024/01/25 08:09:52;;;;;;;1.70;1.70;;;6.60;99.90;;;;;;5047534;28;20538;-69
2024/01/25 08:12:18;;;;;;;1.67;1.67;;;6.60;99.90;;;;;;5039277;28;20081;-68
2024/01/25 08:14:44;;;;;;;2.38;2.13;;;6.60;99.90;;;;;;5052150;28;20496;-68
2024/01/25 08:17:10;;;;;;;4.43;2.45;;;6.60;99.90;;;;;;5041552;28;20155;-69
2024/01/25 08:19:35;;;;;;;2.38;2.28;;;6.60;99.90;;;;;;5044049;28;20064;-69
2024/01/25 08:22:01;;;;;;;2.05;1.95;;;6.70;99.90;;;;;;5048278;28;20068;-69
2024/01/25 08:24:27;;;;;;;1.75;1.65;;;6.70;99.90;;;;;;5038588;28;20529;-69
2024/01/25 08:26:53;;;;;;;1.50;1.50;;;6.80;99.90;;;;;;5050929;28;20108;-69
2024/01/25 08:29:19;;;;;;;3.85;1.80;;;6.80;99.90;;;;;;5038339;28;20057;-69
2024/01/25 08:31:44;;;;;;;1.30;1.30;;;6.90;99.90;;;;;;5046315;28;20159;-69
2024/01/25 08:34:10;;;;;;;1.58;1.58;;;7.00;99.90;;;;;;5040149;28;20382;-70
2024/01/25 08:36:35;;;;;;;1.95;1.77;;;7.10;99.90;;;;;;5051281;28;20037;-69
2024/01/25 08:39:01;;;;;;;1.40;1.40;;;7.20;99.90;;;;;;5040415;28;20075;-68
2024/01/25 08:41:27;;;;;;;1.20;1.20;;;7.30;99.90;;;;;;5045905;28;20040;-70
2024/01/25 08:43:53;;;;;;;1.73;1.63;;;7.40;99.90;;;;;;5047745;28;20025;-69
2024/01/25 08:46:19;;;;;;;1.65;1.65;;;7.50;99.90;;;;;;5038343;28;20028;-68
2024/01/25 08:48:44;;;;;;;1.38;1.38;;;7.50;99.90;;;;;;5051200;28;20029;-68
2024/01/25 08:51:10;;;;;;;1.40;1.40;;;7.60;99.90;;;;;;5041155;28;20381;-69
2024/01/25 08:53:36;;;;;;;1.35;1.35;;;7.60;99.90;;;;;;5044558;28;20039;-68
2024/01/25 08:56:01;;;;;;;14.23;5.40;;;7.60;99.90;;;;;;5048208;28;20025;-68
2024/01/25 08:58:27;;;;;;;3.90;2.17;;;7.70;99.90;;;;;;5037625;28;20030;-69
2024/01/25 09:00:52;;;;;;;4.00;3.00;;;7.80;99.90;;;;;;5050697;28;20037;-69
2024/01/25 09:03:18;;;;;;;1.55;1.55;;;7.80;99.90;;;;;;5041761;28;20029;-70
2024/01/25 09:05:46;;;;;;;12.57;3.45;;;7.90;99.90;;;;;;5043319;28;20025;-69
2024/01/25 09:08:12;;;;;;;3.05;2.50;;;8.00;99.90;;;;;;5049668;28;20032;-69
2024/01/25 09:10:38;;;;;;;2.30;2.20;;;8.00;99.90;;;;;;5037893;28;20061;-69
2024/01/25 09:13:04;;;;;;;2.05;2.03;;;8.10;99.90;;;;;;5048995;28;20382;-68
2024/01/25 09:15:30;;;;;;;3.10;2.85;;;8.20;99.90;;;;;;5043562;28;20021;-68
2024/01/25 09:17:55;;;;;;;1.60;1.60;;;8.30;99.90;;;;;;5041917;28;20040;-69
2024/01/25 09:20:21;;;;;;;5.07;4.75;;;8.40;99.90;;;;;;5050335;28;20569;-68
2024/01/25 09:22:46;;;;;;;5.38;4.88;;;8.50;99.90;;;;;;5037877;28;20414;-68
2024/01/25 09:25:12;;;;;;;8.85;3.05;;;8.70;99.90;;;;;;5046217;28;20025;-69
2024/01/25 09:27:38;;;;;;;2.00;2.00;;;8.80;99.90;;;;;;5042492;28;20032;-68
2024/01/25 09:30:05;;;;;;;6.22;2.28;;;8.90;99.90;;;;;;5040873;28;20057;-69
2024/01/25 09:32:31;;;;;;;9.73;3.35;;;9.00;99.90;;;;;;5040444;28;20030;-69
2024/01/25 09:34:56;;;;;;;5.10;4.65;;;9.00;99.90;;;;;;5048602;28;20049;-69
2024/01/25 09:37:24;;;;;;;1.88;1.88;;;9.00;99.90;;;;;;5042238;28;20033;-68
2024/01/25 09:39:53;;;;;;;1.83;1.83;;;9.10;99.90;;;;;;5042200;28;20025;-69
2024/01/25 09:42:19;;;;;;;4.38;2.95;;;9.10;99.90;;;;;;5049757;28;20116;-68
2024/01/25 09:44:45;;;;;;;3.92;3.35;;;9.20;99.90;;;;;;5037345;28;20117;-69
2024/01/25 09:47:10;;;;;;;4.10;3.35;;;9.30;99.90;;;;;;5047589;28;20478;-69
2024/01/25 09:49:36;;;;;;;5.88;3.38;;;9.20;99.90;;;;;;5043365;28;20025;-70
2024/01/25 09:52:03;;;;;;;3.40;3.05;;;9.20;99.90;;;;;;5040081;28;20021;-69
2024/01/25 09:54:33;;;;;;;2.30;2.10;;;9.20;99.90;;;;;;5050202;28;20087;-70
2024/01/25 09:57:00;;;;;;;2.60;2.50;;;9.30;99.90;;;;;;5038959;28;20025;-70
2024/01/25 09:59:27;;;;;;;3.20;2.92;;;9.30;99.90;;;;;;5043814;28;20466;-70
2024/01/25 10:01:53;;;;;;;2.60;2.50;;;9.40;99.90;;;;;;5046043;28;20116;-70
2024/01/25 10:04:21;;;;;;;4.35;4.05;;;9.30;99.90;;;;;;5037172;28;20029;-69
2024/01/25 10:06:47;;;;;;;3.00;2.90;;;9.30;99.90;;;;;;5050129;28;20068;-71
2024/01/25 10:09:14;;;;;;;9.02;4.20;;;9.40;99.90;;;;;;5040466;28;20029;-69
2024/01/25 10:11:39;;;;;;;3.15;2.95;;;9.40;99.90;;;;;;5042936;28;20029;-69
2024/01/25 10:14:06;;;;;;;6.03;4.57;;;9.40;99.90;;;;;;5046601;28;20116;-69
2024/01/25 10:16:32;;;;;;;2.70;2.55;;;9.40;99.90;;;;;;5036648;28;20053;-69
2024/01/25 10:18:57;;;;;;;2.50;2.40;;;9.30;99.90;;;;;;5048525;28;20080;-69
2024/01/25 10:21:23;;;;;;;3.67;3.42;;;9.30;99.90;;;;;;5041554;28;20445;-69
2024/01/25 10:23:51;;;;;;;2.50;2.40;;;9.30;99.90;;;;;;5041413;28;20057;-69
2024/01/25 10:26:17;;;;;;;3.60;3.40;;;9.40;99.90;;;;;;5049008;28;20040;-69
2024/01/25 10:28:43;;;;;;;10.40;5.32;;;9.40;99.90;;;;;;5036429;28;20026;-69
2024/01/25 10:31:08;;;;;;;3.67;3.35;;;9.50;99.90;;;;;;5045347;28;20030;-69
2024/01/25 10:33:34;;;;;;;6.18;2.67;;;9.40;99.90;;;;;;5042532;28;20059;-69
2024/01/25 10:36:04;;;;;;;2.70;2.50;;;9.50;99.90;;;;;;5039876;28;20057;-69
2024/01/25 10:38:35;;;;;;;1.92;1.92;;;9.60;99.90;;;;;;5049421;28;20059;-69
2024/01/25 10:41:02;;;;;;;2.20;2.10;;;9.50;99.90;;;;;;5038175;28;20047;-69
2024/01/25 10:43:30;;;;;;;2.38;2.28;;;9.60;99.90;;;;;;5048273;28;20033;-69
2024/01/25 10:45:57;;;;;;;7.30;3.22;;;9.60;99.90;;;;;;5039182;28;20086;-69
2024/01/25 10:48:27;;;;;;;14.35;2.90;;;9.60;99.90;;;;;;5032810;28;20470;-69
2024/01/25 10:50:56;;;;;;;4.75;3.42;;;9.50;99.90;;;;;;5048661;28;20111;-69
2024/01/25 10:53:23;;;;;;;7.22;4.47;;;9.50;99.90;;;;;;5040828;28;20036;-69
2024/01/25 10:55:49;;;;;;;2.20;2.08;;;9.40;99.90;;;;;;5040841;28;20429;-69
2024/01/25 10:58:16;;;;;;;3.83;2.97;;;9.40;99.90;;;;;;5047894;28;20033;-69
2024/01/25 11:00:48;;;;;;;1.73;1.63;;;9.20;99.90;;;;;;5033736;28;20042;-68
2024/01/25 11:03:14;;;;;;;3.22;2.67;;;9.20;99.90;;;;;;5030771;28;20032;-69
2024/01/25 11:05:40;;;;;;;3.40;2.65;;;9.10;99.90;;;;;;5033350;28;20022;-69
2024/01/25 11:08:19;;;;;;;2.78;2.60;;;9.10;99.90;;;;;;5031992;28;20036;-69
2024/01/25 11:10:50;;;;;;;15.88;5.00;;;9.20;99.90;;;;;;5035737;28;20037;-70
2024/01/25 11:13:16;;;;;;;9.25;3.45;;;9.20;99.90;;;;;;5033083;28;20033;-69
2024/01/25 11:15:41;;;;;;;2.85;2.33;;;9.20;99.90;;;;;;5032262;28;20489;-69
2024/01/25 11:18:08;;;;;;;2.13;2.00;;;9.10;99.90;;;;;;5032413;28;20018;-70
2024/01/25 11:20:36;;;;;;;9.32;3.50;;;9.10;99.90;;;;;;5029686;28;20052;-69
2024/01/25 11:23:04;;;;;;;3.13;2.42;;;9.10;99.90;;;;;;5032492;28;20036;-69
2024/01/25 11:25:31;;;;;;;9.77;3.88;;;9.10;99.90;;;;;;5035566;28;20049;-69
2024/01/25 11:27:58;;;;;;;14.73;3.80;;;9.10;99.90;;;;;;5038608;28;20545;-69
2024/01/25 11:30:25;;;;;;;2.05;1.63;;;9.10;99.90;;;;;;5038249;28;20474;-69
2024/01/25 11:32:50;;;;;;;3.35;1.98;;;9.10;99.90;;;;;;5038813;28;20029;-69
2024/01/25 11:35:16;;;;;;;4.22;2.95;;;9.20;99.90;;;;;;5038725;28;20064;-69
2024/01/25 11:37:45;;;;;;;3.28;2.03;;;9.30;99.90;;;;;;5038764;28;20473;-69
2024/01/25 11:40:14;;;;;;;3.80;1.95;;;9.30;99.90;;;;;;5038593;28;20017;-69
2024/01/25 11:42:43;;;;;;;1.30;1.20;;;9.30;99.90;;;;;;5038756;28;20094;-69
2024/01/25 11:45:10;;;;;;;2.00;1.90;;;9.30;99.90;;;;;;5038446;28;20029;-69
2024/01/25 11:47:40;;;;;;;4.50;1.88;;;9.40;99.90;;;;;;5038696;28;20104;-68
2024/01/25 11:50:07;;;;;;;4.45;2.50;;;9.40;99.90;;;;;;5039076;28;20077;-69
2024/01/25 11:52:33;;;;;;;1.40;1.40;;;9.50;99.90;;;;;;5035422;28;20462;-69
2024/01/25 11:55:03;;;;;;;9.82;3.67;;;9.50;99.90;;;;;;5038610;28;20164;-69
2024/01/25 11:57:32;;;;;;;3.70;2.45;;;9.60;99.90;;;;;;5038632;28;20037;-69
2024/01/25 11:59:58;;;;;;;6.60;4.85;;;9.60;99.90;;;;;;5038680;28;20026;-68
2024/01/25 12:02:24;;;;;;;6.95;3.58;;;9.60;99.90;;;;;;5038538;28;20060;-69
2024/01/25 12:04:50;;;;;;;3.60;2.92;;;9.60;99.90;;;;;;5038625;28;20033;-69
2024/01/25 12:07:16;;;;;;;2.25;1.77;;;9.70;99.90;;;;;;5038072;28;20033;-69
2024/01/25 12:09:41;;;;;;;3.85;3.47;;;9.70;99.90;;;;;;5037640;28;20025;-69
2024/01/25 12:12:10;;;;;;;11.32;3.10;;;9.70;99.90;;;;;;5037022;28;20040;-69
2024/01/25 12:14:36;;;;;;;3.40;2.08;;;9.70;99.90;;;;;;5038399;28;20029;-69
2024/01/25 12:17:03;;;;;;;4.43;3.20;;;9.90;99.90;;;;;;5039093;28;20030;-69
2024/01/25 12:19:29;;;;;;;5.57;1.45;;;9.90;99.90;;;;;;5038812;28;20120;-69
2024/01/25 12:21:56;;;;;;;3.70;2.78;;;10.10;99.90;;;;;;5038648;28;20521;-69
2024/01/25 12:24:21;;;;;;;1.65;1.05;;;10.20;99.90;;;;;;5038526;28;20029;-69
2024/01/25 12:26:47;;;;;;;7.18;2.42;;;10.30;99.90;;;;;;5038839;28;20037;-69
2024/01/25 12:29:13;;;;;;;1.73;1.63;;;10.40;99.90;;;;;;5038795;28;20064;-69
2024/01/25 12:31:38;;;;;;;1.23;1.23;;;10.50;99.90;;;;;;5038699;28;20033;-69
2024/01/25 12:34:15;;;;;;;6.00;4.30;;;10.50;99.90;;;;;;5038167;28;20069;-69
2024/01/25 12:36:41;;;;;;;11.70;3.45;;;10.50;99.90;;;;;;5036381;28;20032;-69
2024/01/25 12:39:06;;;;;;;11.90;3.15;;;10.50;99.90;;;;;;5035556;28;20033;-69
2024/01/25 12:41:32;;;;;;;5.22;2.13;;;10.50;99.90;;;;;;5035471;28;20141;-68
2024/01/25 12:43:58;;;;;;;9.45;3.10;;;10.50;99.90;;;;;;5034995;28;20095;-69
2024/01/25 12:46:23;;;;;;;1.98;1.40;;;10.60;99.90;;;;;;5035062;28;20021;-68
2024/01/25 12:48:49;;;;;;;6.38;2.55;;;10.70;99.90;;;;;;5034781;28;20033;-69